createdAt,value
2017-07-02T00:00:25.460Z,0
2017-07-02T00:00:51.552Z,0
2017-07-02T00:01:17.642Z,0
2017-07-02T00:01:43.750Z,0
2017-07-02T00:02:09.846Z,0
2017-07-02T00:02:35.936Z,0
2017-07-02T00:03:02.041Z,0
2017-07-02T00:03:28.141Z,0
2017-07-02T00:03:54.231Z,0
2017-07-02T00:04:20.332Z,0
2017-07-02T00:04:46.438Z,0
2017-07-02T00:05:12.535Z,0
2017-07-02T00:05:38.632Z,0
2017-07-02T00:06:04.768Z,0
2017-07-02T00:06:30.901Z,0
2017-07-02T00:06:57.029Z,0
2017-07-02T00:07:23.166Z,0
2017-07-02T00:07:49.269Z,0
2017-07-02T00:08:15.382Z,0
2017-07-02T00:08:41.514Z,0
2017-07-02T00:09:07.613Z,0
2017-07-02T00:09:33.777Z,0
2017-07-02T00:09:59.915Z,0
2017-07-02T00:10:26.037Z,0
2017-07-02T00:10:52.142Z,0
2017-07-02T00:11:18.236Z,0
2017-07-02T00:11:44.326Z,0
2017-07-02T00:12:10.434Z,0
2017-07-02T00:12:36.587Z,0
2017-07-02T00:13:02.725Z,0
2017-07-02T00:13:28.912Z,0
2017-07-02T00:13:55.041Z,0
2017-07-02T00:14:21.134Z,0
2017-07-02T00:14:47.259Z,0
2017-07-02T00:15:13.391Z,0
2017-07-02T00:15:39.501Z,0
2017-07-02T00:16:05.601Z,0
2017-07-02T00:16:31.724Z,0
2017-07-02T00:16:57.830Z,0
2017-07-02T00:17:23.930Z,0
2017-07-02T00:17:50.019Z,0
2017-07-02T00:18:16.120Z,0
2017-07-02T00:18:42.226Z,0
2017-07-02T00:19:08.314Z,0
2017-07-02T00:19:34.437Z,0
2017-07-02T00:20:00.593Z,0
2017-07-02T00:20:26.684Z,0
2017-07-02T00:20:52.804Z,0
2017-07-02T00:21:18.910Z,0
2017-07-02T00:21:45.029Z,0
2017-07-02T00:22:11.162Z,0
2017-07-02T00:22:37.274Z,0
2017-07-02T00:23:03.372Z,0
2017-07-02T00:23:29.535Z,0
2017-07-02T00:23:55.627Z,0
2017-07-02T00:24:21.725Z,0
2017-07-02T00:24:47.831Z,0
2017-07-02T00:25:13.922Z,0
2017-07-02T00:25:40.036Z,0
2017-07-02T00:26:06.143Z,0
2017-07-02T00:26:32.237Z,0
2017-07-02T00:26:58.352Z,0
2017-07-02T00:27:24.457Z,0
2017-07-02T00:27:50.600Z,0
2017-07-02T00:28:16.733Z,0
2017-07-02T00:28:42.826Z,0
2017-07-02T00:29:08.911Z,0
2017-07-02T00:29:35.021Z,0
2017-07-02T00:30:01.144Z,0
2017-07-02T00:30:27.284Z,0
2017-07-02T00:30:53.391Z,0
2017-07-02T00:31:19.491Z,0
2017-07-02T00:31:45.581Z,0
2017-07-02T00:32:11.709Z,0
2017-07-02T00:32:37.841Z,0
2017-07-02T00:33:03.959Z,0
2017-07-02T00:33:30.056Z,0
2017-07-02T00:33:56.146Z,0
2017-07-02T00:34:22.277Z,0
2017-07-02T00:34:48.401Z,0
2017-07-02T00:35:14.494Z,0
2017-07-02T00:35:40.595Z,0
2017-07-02T00:36:06.700Z,0
2017-07-02T00:36:32.786Z,0
2017-07-02T00:36:58.887Z,0
2017-07-02T00:37:25.021Z,0
2017-07-02T00:37:51.112Z,0
2017-07-02T00:38:17.257Z,0
2017-07-02T00:38:43.353Z,0
2017-07-02T00:39:09.454Z,0
2017-07-02T00:39:35.614Z,0
2017-07-02T00:40:01.728Z,0
2017-07-02T00:40:27.853Z,0
2017-07-02T00:40:53.993Z,0
2017-07-02T00:41:20.050Z,0
2017-07-02T00:41:46.148Z,0
2017-07-02T00:42:12.282Z,0
2017-07-02T00:42:38.374Z,0
2017-07-02T00:43:04.511Z,0
2017-07-02T00:43:30.620Z,0
2017-07-02T00:43:56.717Z,0
2017-07-02T00:44:22.819Z,0
2017-07-02T00:44:48.907Z,0
2017-07-02T00:45:15.027Z,0
2017-07-02T00:45:41.163Z,0
2017-07-02T00:46:07.256Z,0
2017-07-02T00:46:33.345Z,0
2017-07-02T00:46:59.458Z,0
2017-07-02T00:47:25.552Z,0
2017-07-02T00:47:51.666Z,0
2017-07-02T00:48:17.796Z,0
2017-07-02T00:48:43.894Z,0
2017-07-02T00:49:09.984Z,0
2017-07-02T00:49:36.084Z,0
2017-07-02T00:50:02.177Z,0
2017-07-02T00:50:28.308Z,0
2017-07-02T00:50:54.402Z,0
2017-07-02T00:51:20.492Z,0
2017-07-02T00:51:46.598Z,0
2017-07-02T00:52:12.699Z,0
2017-07-02T00:52:38.838Z,0
2017-07-02T00:53:04.992Z,0
2017-07-02T00:53:31.098Z,0
2017-07-02T00:53:57.188Z,0
2017-07-02T00:54:23.311Z,0
2017-07-02T00:54:49.444Z,0
2017-07-02T00:55:15.533Z,0
2017-07-02T00:55:41.630Z,0
2017-07-02T00:56:07.734Z,0
2017-07-02T00:56:33.857Z,0
2017-07-02T00:56:59.971Z,0
2017-07-02T00:57:26.080Z,0
2017-07-02T00:57:52.173Z,0
2017-07-02T00:58:18.263Z,0
2017-07-02T00:58:44.371Z,0
2017-07-02T00:59:10.469Z,0
2017-07-02T00:59:36.559Z,0
2017-07-02T01:00:02.661Z,0
2017-07-02T01:00:28.766Z,0
2017-07-02T01:00:54.859Z,0
2017-07-02T01:01:20.982Z,0
2017-07-02T01:01:47.097Z,0
2017-07-02T01:02:13.282Z,0
2017-07-02T01:02:39.409Z,0
2017-07-02T01:03:05.503Z,0
2017-07-02T01:03:31.628Z,0
2017-07-02T01:03:57.788Z,0
2017-07-02T01:04:23.899Z,0
2017-07-02T01:04:50.051Z,0
2017-07-02T01:05:16.185Z,0
2017-07-02T01:05:42.277Z,0
2017-07-02T01:06:08.370Z,0
2017-07-02T01:06:34.492Z,0
2017-07-02T01:07:00.648Z,0
2017-07-02T01:07:26.755Z,0
2017-07-02T01:07:52.865Z,0
2017-07-02T01:08:18.964Z,0
2017-07-02T01:08:45.099Z,0
2017-07-02T01:09:11.215Z,0
2017-07-02T01:09:37.332Z,0
2017-07-02T01:10:03.491Z,0
2017-07-02T01:10:29.586Z,0
2017-07-02T01:10:55.675Z,0
2017-07-02T01:11:21.783Z,0
2017-07-02T01:11:47.906Z,0
2017-07-02T01:12:14.032Z,0
2017-07-02T01:12:40.123Z,0
2017-07-02T01:13:06.219Z,0
2017-07-02T01:13:32.365Z,0
2017-07-02T01:13:58.444Z,0
2017-07-02T01:14:24.559Z,0
2017-07-02T01:14:50.696Z,0
2017-07-02T01:15:16.817Z,0
2017-07-02T01:15:42.932Z,0
2017-07-02T01:16:09.092Z,0
2017-07-02T01:16:35.246Z,0
2017-07-02T01:17:01.363Z,0
2017-07-02T01:17:27.466Z,0
2017-07-02T01:17:53.582Z,0
2017-07-02T01:18:19.719Z,0
2017-07-02T01:18:45.838Z,0
2017-07-02T01:19:11.953Z,0
2017-07-02T01:19:38.086Z,0
2017-07-02T01:20:04.214Z,0
2017-07-02T01:20:30.306Z,0
2017-07-02T01:20:56.483Z,0
2017-07-02T01:21:22.586Z,0
2017-07-02T01:21:48.699Z,0
2017-07-02T01:22:14.852Z,0
2017-07-02T01:22:40.957Z,0
2017-07-02T01:23:07.045Z,0
2017-07-02T01:23:33.175Z,0
2017-07-02T01:23:59.263Z,0
2017-07-02T01:24:25.394Z,0
2017-07-02T01:24:51.556Z,0
2017-07-02T01:25:17.640Z,0
2017-07-02T01:25:43.740Z,0
2017-07-02T01:26:09.847Z,0
2017-07-02T01:26:35.938Z,0
2017-07-02T01:27:02.034Z,0
2017-07-02T01:27:28.192Z,0
2017-07-02T01:27:54.313Z,0
2017-07-02T01:28:20.427Z,0
2017-07-02T01:28:46.585Z,0
2017-07-02T01:29:12.709Z,0
2017-07-02T01:29:38.842Z,0
2017-07-02T01:30:04.962Z,0
2017-07-02T01:30:31.080Z,0
2017-07-02T01:30:57.185Z,0
2017-07-02T01:31:23.280Z,0
2017-07-02T01:31:49.393Z,0
2017-07-02T01:32:15.502Z,0
2017-07-02T01:32:41.598Z,0
2017-07-02T01:33:07.762Z,0
2017-07-02T01:33:33.894Z,0
2017-07-02T01:34:00.022Z,0
2017-07-02T01:34:26.171Z,0
2017-07-02T01:34:52.265Z,0
2017-07-02T01:35:18.378Z,0
2017-07-02T01:35:44.488Z,0
2017-07-02T01:36:10.611Z,0
2017-07-02T01:36:36.703Z,0
2017-07-02T01:37:02.855Z,0
2017-07-02T01:37:28.985Z,0
2017-07-02T01:37:55.101Z,0
2017-07-02T01:38:21.228Z,0
2017-07-02T01:38:47.364Z,0
2017-07-02T01:39:13.526Z,0
2017-07-02T01:39:39.624Z,0
2017-07-02T01:40:05.727Z,0
2017-07-02T01:40:31.820Z,0
2017-07-02T01:40:57.942Z,0
2017-07-02T01:41:24.074Z,0
2017-07-02T01:41:50.166Z,0
2017-07-02T01:42:16.252Z,0
2017-07-02T01:42:42.361Z,0
2017-07-02T01:43:08.457Z,0
2017-07-02T01:43:34.547Z,0
2017-07-02T01:44:00.676Z,0
2017-07-02T01:44:26.775Z,0
2017-07-02T01:44:52.865Z,0
2017-07-02T01:45:18.993Z,0
2017-07-02T01:45:45.082Z,0
2017-07-02T01:46:11.218Z,0
2017-07-02T01:46:37.340Z,0
2017-07-02T01:47:03.431Z,0
2017-07-02T01:47:29.537Z,0
2017-07-02T01:47:55.636Z,0
2017-07-02T01:48:21.751Z,0
2017-07-02T01:48:47.881Z,0
2017-07-02T01:49:13.989Z,0
2017-07-02T01:49:40.100Z,0
2017-07-02T01:50:06.198Z,0
2017-07-02T01:50:32.331Z,0
2017-07-02T01:50:58.422Z,0
2017-07-02T01:51:24.524Z,0
2017-07-02T01:51:50.615Z,0
2017-07-02T01:52:16.717Z,0
2017-07-02T01:52:42.823Z,0
2017-07-02T01:53:08.908Z,0
2017-07-02T01:53:35.030Z,0
2017-07-02T01:54:01.145Z,0
2017-07-02T01:54:27.261Z,0
2017-07-02T01:54:53.358Z,0
2017-07-02T01:55:19.517Z,0
2017-07-02T01:55:45.611Z,0
2017-07-02T01:56:11.701Z,0
2017-07-02T01:56:37.804Z,0
2017-07-02T01:57:03.980Z,0
2017-07-02T01:57:30.085Z,0
2017-07-02T01:57:56.227Z,0
2017-07-02T01:58:22.322Z,0
2017-07-02T01:58:48.428Z,0
2017-07-02T01:59:14.547Z,0
2017-07-02T01:59:40.663Z,0
2017-07-02T02:00:06.799Z,0
2017-07-02T02:00:32.923Z,0
2017-07-02T02:00:59.010Z,0
2017-07-02T02:01:25.139Z,0
2017-07-02T02:01:51.238Z,0
2017-07-02T02:02:17.336Z,0
2017-07-02T02:02:43.432Z,0
2017-07-02T02:03:09.545Z,0
2017-07-02T02:03:35.708Z,0
2017-07-02T02:04:01.840Z,0
2017-07-02T02:04:27.995Z,0
2017-07-02T02:04:54.111Z,0
2017-07-02T02:05:20.231Z,0
2017-07-02T02:05:46.336Z,0
2017-07-02T02:06:12.429Z,0
2017-07-02T02:06:38.517Z,0
2017-07-02T02:07:04.654Z,0
2017-07-02T02:07:30.750Z,0
2017-07-02T02:07:56.851Z,0
2017-07-02T02:08:22.965Z,0
2017-07-02T02:08:49.062Z,0
2017-07-02T02:09:15.168Z,0
2017-07-02T02:09:41.262Z,0
2017-07-02T02:10:07.377Z,0
2017-07-02T02:10:33.485Z,0
2017-07-02T02:10:59.582Z,0
2017-07-02T02:11:25.674Z,0
2017-07-02T02:11:51.777Z,0
2017-07-02T02:12:17.877Z,0
2017-07-02T02:12:43.967Z,0
2017-07-02T02:13:10.093Z,0
2017-07-02T02:13:36.184Z,0
2017-07-02T02:14:02.294Z,0
2017-07-02T02:14:28.414Z,0
2017-07-02T02:14:54.529Z,0
2017-07-02T02:15:20.636Z,0
2017-07-02T02:15:46.735Z,0
2017-07-02T02:16:12.823Z,0
2017-07-02T02:16:38.923Z,0
2017-07-02T02:17:05.029Z,0
2017-07-02T02:17:31.115Z,0
2017-07-02T02:17:57.241Z,0
2017-07-02T02:18:23.347Z,0
2017-07-02T02:18:49.437Z,0
2017-07-02T02:19:15.539Z,0
2017-07-02T02:19:41.680Z,0
2017-07-02T02:20:07.862Z,0
2017-07-02T02:20:33.996Z,0
2017-07-02T02:21:00.082Z,0
2017-07-02T02:21:26.181Z,0
2017-07-02T02:21:52.316Z,0
2017-07-02T02:22:18.457Z,0
2017-07-02T02:22:44.577Z,0
2017-07-02T02:23:10.681Z,0
2017-07-02T02:23:36.802Z,0
2017-07-02T02:24:02.892Z,0
2017-07-02T02:24:29.029Z,0
2017-07-02T02:24:55.150Z,0
2017-07-02T02:25:21.263Z,0
2017-07-02T02:25:47.370Z,0
2017-07-02T02:26:13.496Z,0
2017-07-02T02:26:39.586Z,0
2017-07-02T02:27:05.688Z,0
2017-07-02T02:27:31.849Z,0
2017-07-02T02:27:57.936Z,0
2017-07-02T02:28:24.057Z,0
2017-07-02T02:28:50.189Z,0
2017-07-02T02:29:16.308Z,0
2017-07-02T02:29:42.451Z,0
2017-07-02T02:30:08.575Z,0
2017-07-02T02:30:34.677Z,0
2017-07-02T02:31:00.866Z,0
2017-07-02T02:31:26.955Z,0
2017-07-02T02:31:53.052Z,0
2017-07-02T02:32:19.186Z,0
2017-07-02T02:32:45.277Z,0
2017-07-02T02:33:11.378Z,0
2017-07-02T02:33:37.484Z,0
2017-07-02T02:34:03.600Z,0
2017-07-02T02:34:29.692Z,0
2017-07-02T02:34:55.827Z,0
2017-07-02T02:35:21.923Z,0
2017-07-02T02:35:48.024Z,0
2017-07-02T02:36:14.115Z,0
2017-07-02T02:36:40.212Z,0
2017-07-02T02:37:06.374Z,0
2017-07-02T02:37:32.496Z,0
2017-07-02T02:37:58.586Z,0
2017-07-02T02:38:24.750Z,0
2017-07-02T02:38:50.874Z,0
2017-07-02T02:39:16.964Z,0
2017-07-02T02:39:43.067Z,0
2017-07-02T02:40:09.193Z,0
2017-07-02T02:40:35.308Z,0
2017-07-02T02:41:01.435Z,0
2017-07-02T02:41:27.523Z,0
2017-07-02T02:41:53.633Z,0
2017-07-02T02:42:19.782Z,0
2017-07-02T02:42:45.871Z,0
2017-07-02T02:43:12.003Z,0
2017-07-02T02:43:38.104Z,0
2017-07-02T02:44:04.216Z,0
2017-07-02T02:44:30.340Z,0
2017-07-02T02:44:56.448Z,0
2017-07-02T02:45:22.584Z,0
2017-07-02T02:45:48.684Z,0
2017-07-02T02:46:14.818Z,0
2017-07-02T02:46:40.907Z,0
2017-07-02T02:47:07.004Z,0
2017-07-02T02:47:33.111Z,0
2017-07-02T02:47:59.232Z,0
2017-07-02T02:48:25.323Z,0
2017-07-02T02:48:51.428Z,0
2017-07-02T02:49:17.523Z,0
2017-07-02T02:49:43.613Z,0
2017-07-02T02:50:09.745Z,0
2017-07-02T02:50:35.844Z,0
2017-07-02T02:51:01.935Z,0
2017-07-02T02:51:28.062Z,0
2017-07-02T02:51:54.166Z,0
2017-07-02T02:52:20.287Z,0
2017-07-02T02:52:46.408Z,0
2017-07-02T02:53:12.568Z,0
2017-07-02T02:53:38.696Z,0
2017-07-02T02:54:04.877Z,0
2017-07-02T02:54:30.966Z,0
2017-07-02T02:54:57.068Z,0
2017-07-02T02:55:23.197Z,0
2017-07-02T02:55:49.284Z,0
2017-07-02T02:56:15.408Z,0
2017-07-02T02:56:41.513Z,0
2017-07-02T02:57:07.631Z,0
2017-07-02T02:57:33.777Z,0
2017-07-02T02:57:59.872Z,0
2017-07-02T02:58:26.003Z,0
2017-07-02T02:58:52.166Z,0
2017-07-02T02:59:18.276Z,0
2017-07-02T02:59:44.401Z,0
2017-07-02T03:00:10.561Z,0
2017-07-02T03:00:36.653Z,0
2017-07-02T03:01:02.750Z,0
2017-07-02T03:01:28.911Z,0
2017-07-02T03:01:55.027Z,0
2017-07-02T03:02:21.117Z,0
2017-07-02T03:02:47.227Z,0
2017-07-02T03:03:13.348Z,0
2017-07-02T03:03:39.449Z,0
2017-07-02T03:04:05.537Z,0
2017-07-02T03:04:31.632Z,0
2017-07-02T03:04:57.766Z,0
2017-07-02T03:05:23.886Z,0
2017-07-02T03:05:50.002Z,0
2017-07-02T03:06:16.162Z,0
2017-07-02T03:06:42.285Z,0
2017-07-02T03:07:08.372Z,0
2017-07-02T03:07:34.477Z,0
2017-07-02T03:08:00.577Z,5
2017-07-02T03:08:26.665Z,5
2017-07-02T03:08:52.770Z,5
2017-07-02T03:09:18.902Z,5
2017-07-02T03:09:45.013Z,5
2017-07-02T03:10:11.111Z,5
2017-07-02T03:10:37.246Z,5
2017-07-02T03:11:03.363Z,5
2017-07-02T03:11:29.460Z,5
2017-07-02T03:11:55.563Z,5
2017-07-02T03:12:21.656Z,5
2017-07-02T03:12:47.797Z,5
2017-07-02T03:13:13.958Z,5
2017-07-02T03:13:40.078Z,5
2017-07-02T03:14:06.171Z,5
2017-07-02T03:14:32.279Z,5
2017-07-02T03:14:58.446Z,5
2017-07-02T03:15:24.551Z,5
2017-07-02T03:15:50.643Z,5
2017-07-02T03:16:16.731Z,5
2017-07-02T03:16:42.840Z,5
2017-07-02T03:17:08.936Z,10
2017-07-02T03:17:35.026Z,10
2017-07-02T03:18:01.159Z,10
2017-07-02T03:18:27.258Z,10
2017-07-02T03:18:53.373Z,10
2017-07-02T03:19:19.475Z,10
2017-07-02T03:19:45.580Z,10
2017-07-02T03:20:11.698Z,10
2017-07-02T03:20:37.819Z,10
2017-07-02T03:21:03.908Z,10
2017-07-02T03:21:30.014Z,10
2017-07-02T03:21:56.141Z,10
2017-07-02T03:22:22.256Z,10
2017-07-02T03:22:48.381Z,10
2017-07-02T03:23:14.486Z,10
2017-07-02T03:23:40.573Z,10
2017-07-02T03:24:06.697Z,10
2017-07-02T03:24:32.799Z,10
2017-07-02T03:24:58.887Z,10
2017-07-02T03:25:25.033Z,10
2017-07-02T03:25:51.155Z,10
2017-07-02T03:26:17.260Z,10
2017-07-02T03:26:43.365Z,10
2017-07-02T03:27:09.451Z,10
2017-07-02T03:27:35.551Z,10
2017-07-02T03:28:01.685Z,10
2017-07-02T03:28:27.803Z,10
2017-07-02T03:28:53.945Z,10
2017-07-02T03:29:20.050Z,10
2017-07-02T03:29:46.172Z,10
2017-07-02T03:30:12.313Z,10
2017-07-02T03:30:38.418Z,10
2017-07-02T03:31:04.513Z,15
2017-07-02T03:31:30.614Z,15
2017-07-02T03:31:56.702Z,15
2017-07-02T03:32:22.798Z,15
2017-07-02T03:32:48.904Z,15
2017-07-02T03:33:15.050Z,15
2017-07-02T03:33:41.188Z,15
2017-07-02T03:34:07.297Z,15
2017-07-02T03:34:33.392Z,15
2017-07-02T03:34:59.484Z,15
2017-07-02T03:35:25.614Z,20
2017-07-02T03:35:51.715Z,20
2017-07-02T03:36:17.804Z,20
2017-07-02T03:36:43.907Z,20
2017-07-02T03:37:10.022Z,20
2017-07-02T03:37:36.157Z,20
2017-07-02T03:38:02.305Z,20
2017-07-02T03:38:28.395Z,20
2017-07-02T03:38:54.501Z,20
2017-07-02T03:39:20.628Z,20
2017-07-02T03:39:46.719Z,20
2017-07-02T03:40:12.848Z,20
2017-07-02T03:40:38.954Z,20
2017-07-02T03:41:05.041Z,20
2017-07-02T03:41:31.168Z,20
2017-07-02T03:41:57.274Z,20
2017-07-02T03:42:23.361Z,20
2017-07-02T03:42:49.493Z,20
2017-07-02T03:43:15.680Z,20
2017-07-02T03:43:41.783Z,20
2017-07-02T03:44:07.913Z,20
2017-07-02T03:44:33.998Z,20
2017-07-02T03:45:00.097Z,25
2017-07-02T03:45:26.201Z,25
2017-07-02T03:45:52.290Z,25
2017-07-02T03:46:18.385Z,25
2017-07-02T03:46:44.490Z,25
2017-07-02T03:47:10.613Z,25
2017-07-02T03:47:36.702Z,25
2017-07-02T03:48:02.806Z,25
2017-07-02T03:48:28.953Z,25
2017-07-02T03:48:55.060Z,25
2017-07-02T03:49:21.148Z,30
2017-07-02T03:49:47.244Z,30
2017-07-02T03:50:13.403Z,30
2017-07-02T03:50:39.524Z,30
2017-07-02T03:51:05.615Z,30
2017-07-02T03:51:31.747Z,30
2017-07-02T03:51:57.844Z,30
2017-07-02T03:52:23.934Z,35
2017-07-02T03:52:50.041Z,35
2017-07-02T03:53:16.166Z,35
2017-07-02T03:53:42.279Z,35
2017-07-02T03:54:08.384Z,35
2017-07-02T03:54:34.571Z,35
2017-07-02T03:55:00.707Z,35
2017-07-02T03:55:26.832Z,40
2017-07-02T03:55:52.964Z,40
2017-07-02T03:56:19.055Z,40
2017-07-02T03:56:45.151Z,40
2017-07-02T03:57:11.255Z,40
2017-07-02T03:57:37.348Z,45
2017-07-02T03:58:03.512Z,45
2017-07-02T03:58:29.623Z,45
2017-07-02T03:58:55.745Z,45
2017-07-02T03:59:21.847Z,45
2017-07-02T03:59:47.937Z,45
2017-07-02T04:00:14.058Z,45
2017-07-02T04:00:40.220Z,45
2017-07-02T04:01:06.364Z,45
2017-07-02T04:01:32.478Z,50
2017-07-02T04:01:58.592Z,50
2017-07-02T04:02:24.689Z,50
2017-07-02T04:02:50.796Z,50
2017-07-02T04:03:16.902Z,50
2017-07-02T04:03:43.002Z,45
2017-07-02T04:04:09.116Z,45
2017-07-02T04:04:35.272Z,45
2017-07-02T04:05:01.363Z,45
2017-07-02T04:05:27.468Z,45
2017-07-02T04:05:53.585Z,45
2017-07-02T04:06:19.674Z,45
2017-07-02T04:06:45.826Z,45
2017-07-02T04:07:11.925Z,45
2017-07-02T04:07:38.039Z,45
2017-07-02T04:08:04.139Z,40
2017-07-02T04:08:30.272Z,40
2017-07-02T04:08:56.359Z,40
2017-07-02T04:09:22.484Z,35
2017-07-02T04:09:48.589Z,35
2017-07-02T04:10:14.678Z,35
2017-07-02T04:10:40.779Z,35
2017-07-02T04:11:06.869Z,35
2017-07-02T04:11:32.973Z,35
2017-07-02T04:11:59.078Z,40
2017-07-02T04:12:25.193Z,40
2017-07-02T04:12:51.292Z,40
2017-07-02T04:13:17.425Z,40
2017-07-02T04:13:43.542Z,40
2017-07-02T04:14:09.665Z,40
2017-07-02T04:14:35.772Z,40
2017-07-02T04:15:01.868Z,40
2017-07-02T04:15:27.958Z,40
2017-07-02T04:15:54.063Z,40
2017-07-02T04:16:20.160Z,40
2017-07-02T04:16:46.265Z,40
2017-07-02T04:17:12.378Z,40
2017-07-02T04:17:38.473Z,40
2017-07-02T04:18:04.607Z,45
2017-07-02T04:18:30.698Z,45
2017-07-02T04:18:56.789Z,45
2017-07-02T04:19:22.899Z,45
2017-07-02T04:19:49.018Z,45
2017-07-02T04:20:15.107Z,45
2017-07-02T04:20:41.236Z,45
2017-07-02T04:21:07.337Z,45
2017-07-02T04:21:33.438Z,45
2017-07-02T04:21:59.530Z,45
2017-07-02T04:22:25.646Z,45
2017-07-02T04:22:51.780Z,50
2017-07-02T04:23:17.873Z,50
2017-07-02T04:23:43.963Z,50
2017-07-02T04:24:10.069Z,50
2017-07-02T04:24:36.197Z,50
2017-07-02T04:25:02.312Z,50
2017-07-02T04:25:28.438Z,50
2017-07-02T04:25:54.544Z,50
2017-07-02T04:26:20.628Z,50
2017-07-02T04:26:46.751Z,50
2017-07-02T04:27:12.870Z,55
2017-07-02T04:27:38.976Z,55
2017-07-02T04:28:05.104Z,55
2017-07-02T04:28:31.218Z,60
2017-07-02T04:28:57.371Z,60
2017-07-02T04:29:23.477Z,60
2017-07-02T04:29:49.568Z,60
2017-07-02T04:30:15.693Z,60
2017-07-02T04:30:41.799Z,60
2017-07-02T04:31:07.917Z,55
2017-07-02T04:31:34.058Z,55
2017-07-02T04:32:00.190Z,55
2017-07-02T04:32:26.309Z,55
2017-07-02T04:32:52.443Z,55
2017-07-02T04:33:18.582Z,55
2017-07-02T04:33:44.682Z,55
2017-07-02T04:34:10.844Z,55
2017-07-02T04:34:36.987Z,60
2017-07-02T04:35:03.107Z,60
2017-07-02T04:35:29.212Z,60
2017-07-02T04:35:55.304Z,60
2017-07-02T04:36:21.393Z,60
2017-07-02T04:36:47.501Z,65
2017-07-02T04:37:13.596Z,65
2017-07-02T04:37:39.688Z,70
2017-07-02T04:38:05.794Z,70
2017-07-02T04:38:31.922Z,70
2017-07-02T04:38:58.036Z,70
2017-07-02T04:39:24.146Z,70
2017-07-02T04:39:50.244Z,70
2017-07-02T04:40:16.334Z,70
2017-07-02T04:40:42.433Z,70
2017-07-02T04:41:08.538Z,70
2017-07-02T04:41:34.628Z,70
2017-07-02T04:42:00.725Z,70
2017-07-02T04:42:26.829Z,70
2017-07-02T04:42:52.923Z,70
2017-07-02T04:43:19.013Z,70
2017-07-02T04:43:45.114Z,70
2017-07-02T04:44:11.211Z,70
2017-07-02T04:44:37.318Z,75
2017-07-02T04:45:03.431Z,75
2017-07-02T04:45:29.531Z,75
2017-07-02T04:45:55.636Z,75
2017-07-02T04:46:21.729Z,80
2017-07-02T04:46:47.817Z,80
2017-07-02T04:47:13.948Z,85
2017-07-02T04:47:40.072Z,85
2017-07-02T04:48:06.163Z,85
2017-07-02T04:48:32.266Z,85
2017-07-02T04:48:58.392Z,85
2017-07-02T04:49:24.490Z,85
2017-07-02T04:49:50.612Z,85
2017-07-02T04:50:16.724Z,85
2017-07-02T04:50:42.833Z,85
2017-07-02T04:51:08.954Z,85
2017-07-02T04:51:35.043Z,85
2017-07-02T04:52:01.149Z,85
2017-07-02T04:52:27.302Z,85
2017-07-02T04:52:53.416Z,85
2017-07-02T04:53:19.519Z,85
2017-07-02T04:53:45.625Z,85
2017-07-02T04:54:11.736Z,85
2017-07-02T04:54:37.836Z,85
2017-07-02T04:55:03.928Z,85
2017-07-02T04:55:30.033Z,90
2017-07-02T04:55:56.161Z,90
2017-07-02T04:56:22.253Z,95
2017-07-02T04:56:48.381Z,100
2017-07-02T04:57:14.541Z,100
2017-07-02T04:57:40.629Z,105
2017-07-02T04:58:06.728Z,110
2017-07-02T04:58:32.887Z,110
2017-07-02T04:58:59.030Z,115
2017-07-02T04:59:25.151Z,115
2017-07-02T04:59:51.285Z,120
2017-07-02T05:00:17.377Z,120
2017-07-02T05:00:43.483Z,125
2017-07-02T05:01:09.595Z,125
2017-07-02T05:01:35.695Z,130
2017-07-02T05:02:01.911Z,130
2017-07-02T05:02:28.000Z,135
2017-07-02T05:02:54.119Z,135
2017-07-02T05:03:20.253Z,140
2017-07-02T05:03:46.347Z,140
2017-07-02T05:04:12.460Z,145
2017-07-02T05:04:38.568Z,145
2017-07-02T05:05:04.663Z,145
2017-07-02T05:05:30.750Z,145
2017-07-02T05:05:56.856Z,145
2017-07-02T05:06:22.974Z,145
2017-07-02T05:06:49.133Z,145
2017-07-02T05:07:15.226Z,145
2017-07-02T05:07:41.314Z,140
2017-07-02T05:08:07.452Z,135
2017-07-02T05:08:33.577Z,135
2017-07-02T05:08:59.690Z,130
2017-07-02T05:09:25.823Z,130
2017-07-02T05:09:51.924Z,130
2017-07-02T05:10:18.016Z,130
2017-07-02T05:10:44.116Z,125
2017-07-02T05:11:10.222Z,125
2017-07-02T05:11:36.341Z,125
2017-07-02T05:12:02.438Z,125
2017-07-02T05:12:28.529Z,125
2017-07-02T05:12:54.667Z,125
2017-07-02T05:13:20.843Z,125
2017-07-02T05:13:46.961Z,125
2017-07-02T05:14:13.087Z,130
2017-07-02T05:14:39.218Z,130
2017-07-02T05:15:05.335Z,125
2017-07-02T05:15:31.460Z,125
2017-07-02T05:15:57.565Z,125
2017-07-02T05:16:23.680Z,125
2017-07-02T05:16:49.776Z,125
2017-07-02T05:17:15.897Z,125
2017-07-02T05:17:42.040Z,125
2017-07-02T05:18:08.104Z,125
2017-07-02T05:18:34.217Z,125
2017-07-02T05:19:00.391Z,125
2017-07-02T05:19:26.524Z,120
2017-07-02T05:19:52.613Z,120
2017-07-02T05:20:18.736Z,120
2017-07-02T05:20:44.841Z,120
2017-07-02T05:21:10.934Z,125
2017-07-02T05:21:37.049Z,125
2017-07-02T05:22:03.156Z,130
2017-07-02T05:22:29.253Z,130
2017-07-02T05:22:55.342Z,130
2017-07-02T05:23:21.447Z,135
2017-07-02T05:23:47.603Z,135
2017-07-02T05:24:13.719Z,135
2017-07-02T05:24:39.870Z,140
2017-07-02T05:25:05.977Z,140
2017-07-02T05:25:32.066Z,145
2017-07-02T05:25:58.163Z,145
2017-07-02T05:26:24.269Z,145
2017-07-02T05:26:50.360Z,145
2017-07-02T05:27:16.454Z,145
2017-07-02T05:27:42.587Z,145
2017-07-02T05:28:08.737Z,145
2017-07-02T05:28:34.893Z,150
2017-07-02T05:29:01.029Z,150
2017-07-02T05:29:27.181Z,150
2017-07-02T05:29:53.286Z,150
2017-07-02T05:30:19.398Z,155
2017-07-02T05:30:45.494Z,155
2017-07-02T05:31:11.627Z,155
2017-07-02T05:31:37.722Z,155
2017-07-02T05:32:03.812Z,155
2017-07-02T05:32:29.947Z,155
2017-07-02T05:32:56.072Z,155
2017-07-02T05:33:22.163Z,155
2017-07-02T05:33:48.269Z,150
2017-07-02T05:34:14.363Z,150
2017-07-02T05:34:40.468Z,150
2017-07-02T05:35:06.564Z,150
2017-07-02T05:35:32.651Z,150
2017-07-02T05:35:58.760Z,150
2017-07-02T05:36:24.855Z,150
2017-07-02T05:36:50.946Z,150
2017-07-02T05:37:17.050Z,150
2017-07-02T05:37:43.149Z,155
2017-07-02T05:38:09.288Z,155
2017-07-02T05:38:35.390Z,160
2017-07-02T05:39:01.496Z,160
2017-07-02T05:39:27.589Z,165
2017-07-02T05:39:53.728Z,170
2017-07-02T05:40:19.776Z,175
2017-07-02T05:40:45.883Z,180
2017-07-02T05:41:12.011Z,190
2017-07-02T05:41:38.127Z,200
2017-07-02T05:42:04.230Z,210
2017-07-02T05:42:30.360Z,215
2017-07-02T05:42:56.446Z,225
2017-07-02T05:43:22.568Z,235
2017-07-02T05:43:48.732Z,250
2017-07-02T05:44:14.822Z,260
2017-07-02T05:44:40.969Z,275
2017-07-02T05:45:07.065Z,280
2017-07-02T05:45:33.168Z,295
2017-07-02T05:45:59.273Z,305
2017-07-02T05:46:25.361Z,320
2017-07-02T05:46:51.463Z,330
2017-07-02T05:47:17.620Z,345
2017-07-02T05:47:43.711Z,350
2017-07-02T05:48:09.809Z,360
2017-07-02T05:48:35.970Z,365
2017-07-02T05:49:02.115Z,370
2017-07-02T05:49:28.202Z,375
2017-07-02T05:49:54.334Z,375
2017-07-02T05:50:20.430Z,385
2017-07-02T05:50:46.562Z,380
2017-07-02T05:51:12.652Z,390
2017-07-02T05:51:38.744Z,385
2017-07-02T05:52:04.849Z,395
2017-07-02T05:52:30.963Z,390
2017-07-02T05:52:57.079Z,390
2017-07-02T05:53:23.218Z,390
2017-07-02T05:53:49.313Z,390
2017-07-02T05:54:15.425Z,395
2017-07-02T05:54:41.583Z,385
2017-07-02T05:55:07.683Z,390
2017-07-02T05:55:33.797Z,385
2017-07-02T05:55:59.951Z,390
2017-07-02T05:56:26.042Z,385
2017-07-02T05:56:52.152Z,385
2017-07-02T05:57:18.249Z,385
2017-07-02T05:57:44.342Z,390
2017-07-02T05:58:10.448Z,390
2017-07-02T05:58:36.547Z,395
2017-07-02T05:59:02.639Z,400
2017-07-02T05:59:28.744Z,405
2017-07-02T05:59:54.877Z,415
2017-07-02T06:00:21.012Z,425
2017-07-02T06:00:47.112Z,440
2017-07-02T06:01:13.256Z,450
2017-07-02T06:01:39.361Z,460
2017-07-02T06:02:05.468Z,465
2017-07-02T06:02:31.581Z,475
2017-07-02T06:02:57.731Z,480
2017-07-02T06:03:23.891Z,475
2017-07-02T06:03:50.055Z,475
2017-07-02T06:04:16.158Z,475
2017-07-02T06:04:42.291Z,475
2017-07-02T06:05:08.402Z,475
2017-07-02T06:05:34.497Z,485
2017-07-02T06:06:00.603Z,490
2017-07-02T06:06:26.698Z,495
2017-07-02T06:06:52.789Z,500
2017-07-02T06:07:18.899Z,505
2017-07-02T06:07:44.996Z,505
2017-07-02T06:08:11.086Z,505
2017-07-02T06:08:37.219Z,510
2017-07-02T06:09:03.319Z,500
2017-07-02T06:09:29.435Z,495
2017-07-02T06:09:55.537Z,490
2017-07-02T06:10:21.645Z,485
2017-07-02T06:10:47.730Z,475
2017-07-02T06:11:13.832Z,470
2017-07-02T06:11:39.937Z,455
2017-07-02T06:12:06.028Z,445
2017-07-02T06:12:32.124Z,430
2017-07-02T06:12:58.297Z,415
2017-07-02T06:13:24.455Z,410
2017-07-02T06:13:50.644Z,395
2017-07-02T06:14:16.729Z,390
2017-07-02T06:14:42.830Z,385
2017-07-02T06:15:08.966Z,380
2017-07-02T06:15:35.083Z,375
2017-07-02T06:16:01.176Z,375
2017-07-02T06:16:27.284Z,375
2017-07-02T06:16:53.378Z,365